createdAt,value
2019-03-21T00:01:35.260Z,29.87
2019-03-21T00:04:09.383Z,24.83
2019-03-21T00:06:38.904Z,27.27
2019-03-21T00:09:14.092Z,24.10
2019-03-21T00:12:07.146Z,27.00
2019-03-21T00:14:56.131Z,22.13
2019-03-21T00:17:41.653Z,20.60
2019-03-21T00:20:17.530Z,21.20
2019-03-21T00:22:47.004Z,21.53
2019-03-21T00:25:25.779Z,21.53
2019-03-21T00:27:55.294Z,20.13
2019-03-21T00:30:26.854Z,22.77
2019-03-21T00:32:57.413Z,25.97
2019-03-21T00:35:26.906Z,25.13
2019-03-21T00:37:56.346Z,23.90
2019-03-21T00:40:35.418Z,22.37
2019-03-21T00:43:08.472Z,18.27
2019-03-21T00:45:37.968Z,19.27
2019-03-21T00:48:14.359Z,22.13
2019-03-21T00:50:43.784Z,19.03
2019-03-21T00:53:13.230Z,19.10
2019-03-21T00:55:59.077Z,19.40
2019-03-21T00:58:28.510Z,18.53
2019-03-21T01:01:08.125Z,21.30
2019-03-21T01:03:38.807Z,19.60
2019-03-21T01:06:08.259Z,18.90
2019-03-21T01:08:37.717Z,19.07
2019-03-21T01:11:07.617Z,18.20
2019-03-21T01:13:41.407Z,17.67
2019-03-21T01:16:10.907Z,16.50
2019-03-21T01:18:46.571Z,18.30
2019-03-21T01:21:16.119Z,16.00
2019-03-21T01:23:45.565Z,17.20
2019-03-21T01:26:15.975Z,17.97
2019-03-21T01:28:45.451Z,16.77
2019-03-21T01:31:14.896Z,17.23
2019-03-21T01:33:44.333Z,17.50
2019-03-21T01:36:13.819Z,17.37
2019-03-21T01:38:43.266Z,17.00
2019-03-21T01:41:19.266Z,16.70
2019-03-21T01:43:48.720Z,16.20
2019-03-21T01:46:21.590Z,17.30
2019-03-21T01:48:51.060Z,17.33
2019-03-21T01:51:20.584Z,15.90
2019-03-21T01:53:50.275Z,15.50
2019-03-21T01:56:19.790Z,16.13
2019-03-21T01:58:49.229Z,17.03
2019-03-21T02:01:18.656Z,16.87
2019-03-21T02:03:48.124Z,17.40
2019-03-21T02:06:17.559Z,17.90
2019-03-21T02:08:47.008Z,17.30
2019-03-21T02:11:16.495Z,18.90
2019-03-21T02:13:45.917Z,15.63
2019-03-21T02:16:15.370Z,16.43
2019-03-21T02:18:44.851Z,12.50
2019-03-21T02:21:14.299Z,16.97
2019-03-21T02:23:43.751Z,15.90
2019-03-21T02:26:13.281Z,14.53
2019-03-21T02:28:42.732Z,14.47
2019-03-21T02:31:12.166Z,14.60
2019-03-21T02:33:44.957Z,15.90
2019-03-21T02:36:15.061Z,14.53
2019-03-21T02:38:44.513Z,14.93
2019-03-21T02:41:16.595Z,14.17
2019-03-21T02:43:46.046Z,13.73
2019-03-21T02:46:15.630Z,14.40
2019-03-21T02:48:45.125Z,15.20
2019-03-21T02:51:14.584Z,13.50
2019-03-21T02:53:44.057Z,11.47
2019-03-21T02:56:24.008Z,13.90
2019-03-21T02:58:53.525Z,13.43
2019-03-21T03:01:22.967Z,13.13
2019-03-21T03:03:52.443Z,13.80
2019-03-21T03:06:21.867Z,13.97
2019-03-21T03:08:51.298Z,12.30
2019-03-21T03:11:25.477Z,12.87
2019-03-21T03:13:55.447Z,13.80
2019-03-21T03:16:26.465Z,13.37
2019-03-21T03:18:55.941Z,10.10
2019-03-21T03:21:25.390Z,10.20
2019-03-21T03:23:54.846Z,13.67
2019-03-21T03:26:24.333Z,10.80
2019-03-21T03:28:53.749Z,12.80
2019-03-21T03:31:23.190Z,13.53
2019-03-21T03:33:52.671Z,13.17
2019-03-21T03:36:22.103Z,12.10
2019-03-21T03:38:51.563Z,12.90
2019-03-21T03:41:22.445Z,12.53
2019-03-21T03:43:51.906Z,12.67
2019-03-21T03:46:21.361Z,12.43
2019-03-21T03:48:50.828Z,11.70
2019-03-21T03:51:20.277Z,9.10
2019-03-21T03:53:49.699Z,11.63
2019-03-21T03:56:19.237Z,9.80
2019-03-21T03:58:56.497Z,8.80
2019-03-21T04:01:26.003Z,12.13
2019-03-21T04:03:55.741Z,9.60
2019-03-21T04:06:25.186Z,8.50
2019-03-21T04:08:54.714Z,9.20
2019-03-21T04:11:24.456Z,9.47
2019-03-21T04:13:53.897Z,10.53
2019-03-21T04:16:23.373Z,11.50
2019-03-21T04:18:52.913Z,9.03
2019-03-21T04:21:22.335Z,10.17
2019-03-21T04:23:51.823Z,12.07
2019-03-21T04:26:34.545Z,15.47
2019-03-21T04:29:04.017Z,9.40
2019-03-21T04:31:33.466Z,8.00
2019-03-21T04:34:08.852Z,13.13
2019-03-21T04:36:38.300Z,12.57
2019-03-21T04:39:10.143Z,8.20
2019-03-21T04:41:42.431Z,10.90
2019-03-21T04:44:11.871Z,7.83
2019-03-21T04:46:41.295Z,10.53
2019-03-21T04:49:10.774Z,11.97
2019-03-21T04:51:40.215Z,10.93
2019-03-21T04:54:09.698Z,14.80
2019-03-21T04:56:39.171Z,12.97
2019-03-21T04:59:08.615Z,8.73
2019-03-21T05:01:38.040Z,9.00
2019-03-21T05:04:07.495Z,7.87
2019-03-21T05:06:36.929Z,11.13
2019-03-21T05:09:09.274Z,9.20
2019-03-21T05:11:38.723Z,9.90
2019-03-21T05:14:08.206Z,17.57
2019-03-21T05:16:37.615Z,14.20
2019-03-21T05:19:07.089Z,15.03
2019-03-21T05:21:36.543Z,14.70
2019-03-21T05:24:05.990Z,10.63
2019-03-21T05:26:35.459Z,17.43
2019-03-21T05:29:04.972Z,11.47
2019-03-21T05:31:36.503Z,14.00
2019-03-21T05:34:05.977Z,13.00
2019-03-21T05:36:35.427Z,12.90
2019-03-21T05:39:08.355Z,17.77
2019-03-21T05:41:37.841Z,16.77
2019-03-21T05:44:26.903Z,16.63
2019-03-21T05:46:56.409Z,15.90
2019-03-21T05:49:25.825Z,15.80
2019-03-21T05:51:55.270Z,10.70
2019-03-21T05:54:24.728Z,15.67
2019-03-21T05:56:54.179Z,19.23
2019-03-21T05:59:23.627Z,17.87
2019-03-21T06:01:53.099Z,16.60
2019-03-21T06:04:22.613Z,14.47
2019-03-21T06:07:19.122Z,19.63
2019-03-21T06:09:48.609Z,18.10
2019-03-21T06:12:18.060Z,17.87
2019-03-21T06:14:52.130Z,18.77
2019-03-21T06:17:21.666Z,17.50
2019-03-21T06:20:34.563Z,15.60
2019-03-21T06:23:14.424Z,16.07
2019-03-21T06:25:57.210Z,17.20
2019-03-21T06:28:26.685Z,17.03
2019-03-21T06:30:56.116Z,14.93
2019-03-21T06:33:25.628Z,18.40
2019-03-21T06:35:55.055Z,18.43
2019-03-21T06:38:24.512Z,17.67
2019-03-21T06:40:53.983Z,16.97
2019-03-21T06:43:23.434Z,15.60
2019-03-21T06:45:52.876Z,15.07
2019-03-21T06:48:22.347Z,16.00
2019-03-21T06:50:51.794Z,18.40
2019-03-21T06:53:21.235Z,16.33
2019-03-21T06:55:50.715Z,15.30
2019-03-21T06:58:20.161Z,15.97
2019-03-21T07:00:49.626Z,17.50
2019-03-21T07:03:19.085Z,15.30
2019-03-21T07:05:48.512Z,17.53
2019-03-21T07:08:17.959Z,17.33
2019-03-21T07:10:47.431Z,16.20
2019-03-21T07:13:16.850Z,16.00
2019-03-21T07:15:46.306Z,15.10
2019-03-21T07:18:15.775Z,17.70
2019-03-21T07:20:45.224Z,16.07
2019-03-21T07:23:14.670Z,15.40
2019-03-21T07:25:44.145Z,15.97
2019-03-21T07:28:13.593Z,12.00
2019-03-21T07:30:43.039Z,17.10
2019-03-21T07:33:12.521Z,16.80
2019-03-21T07:35:41.977Z,16.67
2019-03-21T07:38:11.418Z,17.77
2019-03-21T07:40:40.891Z,16.00
2019-03-21T07:43:10.339Z,13.93
2019-03-21T07:45:39.772Z,15.67
2019-03-21T07:48:09.253Z,15.60
2019-03-21T07:50:38.678Z,16.17
2019-03-21T07:53:08.133Z,16.40
2019-03-21T07:55:37.583Z,16.57
2019-03-21T07:58:07.013Z,17.23
2019-03-21T08:00:36.464Z,16.60
2019-03-21T08:03:05.911Z,16.10
2019-03-21T08:05:40.166Z,17.70
2019-03-21T08:08:06.536Z,15.37
2019-03-21T08:10:35.996Z,17.27
2019-03-21T08:13:05.512Z,15.93
2019-03-21T08:15:37.659Z,17.57
2019-03-21T08:18:06.147Z,18.97
2019-03-21T08:20:35.624Z,17.70
2019-03-21T08:23:05.147Z,17.67
2019-03-21T08:25:34.801Z,16.90
2019-03-21T08:28:04.434Z,18.80
2019-03-21T08:30:35.676Z,19.17
2019-03-21T08:33:05.885Z,18.27
2019-03-21T08:35:54.655Z,15.47
2019-03-21T08:38:24.122Z,17.17
2019-03-21T08:40:53.576Z,17.53
2019-03-21T08:43:22.995Z,19.57
2019-03-21T08:45:52.478Z,18.53
2019-03-21T08:48:21.924Z,20.30
2019-03-21T08:50:51.349Z,15.87
2019-03-21T08:53:20.830Z,18.50
2019-03-21T08:55:50.279Z,17.77
2019-03-21T08:58:19.724Z,17.97
2019-03-21T09:00:49.183Z,17.93
2019-03-21T09:03:18.609Z,19.77
2019-03-21T09:05:48.060Z,18.23
2019-03-21T09:08:17.533Z,17.67
2019-03-21T09:10:46.978Z,19.03
2019-03-21T09:13:16.411Z,19.33
2019-03-21T09:15:45.885Z,19.13
2019-03-21T09:18:15.338Z,20.63
2019-03-21T09:20:44.802Z,21.50
2019-03-21T09:23:14.257Z,19.70
2019-03-21T09:25:43.710Z,16.77
2019-03-21T09:28:14.357Z,20.40
2019-03-21T09:30:43.966Z,18.93
2019-03-21T09:33:13.422Z,18.80
2019-03-21T09:35:42.873Z,20.80
2019-03-21T09:38:12.341Z,19.70
2019-03-21T09:40:41.764Z,20.20
2019-03-21T09:43:11.191Z,19.30
2019-03-21T09:45:40.673Z,19.23
2019-03-21T09:48:10.131Z,18.20
2019-03-21T09:50:39.580Z,18.57
2019-03-21T09:53:09.042Z,19.93
2019-03-21T09:55:38.498Z,20.03
2019-03-21T09:58:07.933Z,15.30
2019-03-21T10:00:38.238Z,18.23
2019-03-21T10:03:08.036Z,19.30
2019-03-21T10:05:37.548Z,19.90
2019-03-21T10:08:07.179Z,17.03
2019-03-21T10:10:36.735Z,21.20
2019-03-21T10:13:06.833Z,19.23
2019-03-21T10:15:36.308Z,20.30
2019-03-21T10:18:05.986Z,19.80
2019-03-21T10:20:35.452Z,21.03
2019-03-21T10:23:05.103Z,19.03
2019-03-21T10:25:34.726Z,18.17
2019-03-21T10:28:04.160Z,21.00
2019-03-21T10:30:38.958Z,20.23
2019-03-21T10:33:11.790Z,21.40
2019-03-21T10:35:41.556Z,20.43
2019-03-21T10:38:11.017Z,19.80
2019-03-21T10:40:40.878Z,21.43
2019-03-21T10:43:10.787Z,19.60
2019-03-21T10:45:40.269Z,19.87
2019-03-21T10:48:09.701Z,21.40
2019-03-21T10:50:41.466Z,20.70
2019-03-21T10:53:11.294Z,22.20
2019-03-21T10:55:40.817Z,21.60
2019-03-21T10:58:10.510Z,20.47
2019-03-21T11:00:40.339Z,18.17
2019-03-21T11:03:09.855Z,18.13
2019-03-21T11:05:39.492Z,20.30
2019-03-21T11:08:09.008Z,17.63
2019-03-21T11:10:38.470Z,18.60
2019-03-21T11:13:08.262Z,21.50
2019-03-21T11:15:38.063Z,18.80
2019-03-21T11:18:07.589Z,19.57
2019-03-21T11:20:39.241Z,19.10
2019-03-21T11:23:09.260Z,20.40
2019-03-21T11:25:38.776Z,19.27
2019-03-21T11:28:08.774Z,20.30
2019-03-21T11:30:43.454Z,19.80
2019-03-21T11:33:12.918Z,17.87
2019-03-21T11:35:42.445Z,21.63
2019-03-21T11:38:11.987Z,20.67
2019-03-21T11:40:41.491Z,18.23
2019-03-21T11:43:11.462Z,19.40
2019-03-21T11:45:40.962Z,20.97
2019-03-21T11:48:10.417Z,18.30
2019-03-21T11:50:39.863Z,19.33
2019-03-21T11:53:09.325Z,20.00
2019-03-21T11:55:38.784Z,19.17
2019-03-21T11:58:08.234Z,22.90
2019-03-21T12:00:44.013Z,21.50
2019-03-21T12:03:09.529Z,20.20
2019-03-21T12:05:38.987Z,19.53
2019-03-21T12:08:08.518Z,20.97
2019-03-21T12:10:37.918Z,16.60
2019-03-21T12:13:07.343Z,18.70
2019-03-21T12:15:36.824Z,17.20
2019-03-21T12:18:06.281Z,18.57
2019-03-21T12:20:35.748Z,18.90
2019-03-21T12:23:05.716Z,18.30
2019-03-21T12:25:35.187Z,16.57
2019-03-21T12:28:04.703Z,20.43
2019-03-21T12:30:37.536Z,19.47
2019-03-21T12:33:07.363Z,21.07
2019-03-21T12:35:37.178Z,16.70
2019-03-21T12:38:09.794Z,18.30
2019-03-21T12:40:39.256Z,16.73
2019-03-21T12:43:08.858Z,16.00
2019-03-21T12:45:38.312Z,15.27
2019-03-21T12:48:07.834Z,15.90
2019-03-21T12:50:37.292Z,13.37
2019-03-21T12:53:06.742Z,13.33
2019-03-21T12:55:36.195Z,16.57
2019-03-21T12:58:05.812Z,15.60
2019-03-21T13:00:38.201Z,16.93
2019-03-21T13:03:07.725Z,17.33
2019-03-21T13:05:37.273Z,15.67
2019-03-21T13:08:07.144Z,14.30
2019-03-21T13:10:36.600Z,15.10
2019-03-21T13:13:07.143Z,15.27
2019-03-21T13:15:36.787Z,15.73
2019-03-21T13:18:07.038Z,17.77
2019-03-21T13:20:36.819Z,12.43
2019-03-21T13:23:06.432Z,13.47
2019-03-21T13:25:35.964Z,11.83
2019-03-21T13:28:06.084Z,12.20
2019-03-21T13:30:35.632Z,14.43
2019-03-21T13:33:05.572Z,12.93
2019-03-21T13:35:35.005Z,14.77
2019-03-21T13:38:04.631Z,13.57
2019-03-21T13:40:34.082Z,12.23
2019-03-21T13:43:03.883Z,12.87
2019-03-21T13:45:33.367Z,13.40
2019-03-21T13:48:02.882Z,13.17
2019-03-21T13:50:32.356Z,13.60
2019-03-21T13:53:05.170Z,12.47
2019-03-21T13:55:33.057Z,11.63
2019-03-21T13:58:02.489Z,12.27
2019-03-21T14:00:31.979Z,12.33
2019-03-21T14:03:01.419Z,11.83
2019-03-21T14:05:30.867Z,10.53
2019-03-21T14:08:00.335Z,11.63
2019-03-21T14:10:32.244Z,11.00
2019-03-21T14:13:00.960Z,11.73
2019-03-21T14:15:30.440Z,10.63
2019-03-21T14:17:59.899Z,12.30
2019-03-21T14:20:29.331Z,11.70
2019-03-21T14:22:58.812Z,12.17
2019-03-21T14:25:28.261Z,10.37
2019-03-21T14:27:57.715Z,9.17
2019-03-21T14:30:27.195Z,11.07
2019-03-21T14:32:56.652Z,12.47
2019-03-21T14:35:26.101Z,11.13
2019-03-21T14:37:55.588Z,12.60
2019-03-21T14:40:25.059Z,15.53
2019-03-21T14:42:54.513Z,15.10
2019-03-21T14:45:23.992Z,12.80
2019-03-21T14:47:53.453Z,12.60
2019-03-21T14:50:23.259Z,19.40
2019-03-21T14:52:52.735Z,13.70
2019-03-21T14:55:22.366Z,14.20
2019-03-21T14:57:51.824Z,11.03
2019-03-21T15:00:21.654Z,11.40
2019-03-21T15:02:51.111Z,12.50
2019-03-21T15:05:20.563Z,21.90
2019-03-21T15:07:50.042Z,14.10
2019-03-21T15:10:20.523Z,14.80
2019-03-21T15:12:49.997Z,13.33
2019-03-21T15:15:19.540Z,13.07
2019-03-21T15:17:48.993Z,12.30
2019-03-21T15:20:18.843Z,10.53
2019-03-21T15:22:48.321Z,11.50
2019-03-21T15:25:17.778Z,12.20
2019-03-21T15:27:47.230Z,10.10
2019-03-21T15:30:21.230Z,10.40
2019-03-21T15:32:50.759Z,8.97
2019-03-21T15:35:20.605Z,9.87
2019-03-21T15:37:50.112Z,9.40
2019-03-21T15:40:19.565Z,10.20
2019-03-21T15:42:49.018Z,9.87
2019-03-21T15:45:23.378Z,9.50
2019-03-21T15:47:51.342Z,8.27
2019-03-21T15:50:37.641Z,9.60
2019-03-21T15:53:07.963Z,9.43
2019-03-21T15:55:37.412Z,8.30
2019-03-21T15:58:06.958Z,7.30
2019-03-21T16:00:44.114Z,7.63
2019-03-21T16:03:14.320Z,7.27
2019-03-21T16:05:43.848Z,7.60
2019-03-21T16:08:13.368Z,6.90
2019-03-21T16:10:42.854Z,6.17
2019-03-21T16:13:12.325Z,7.17
2019-03-21T16:15:41.753Z,7.30
2019-03-21T16:18:11.230Z,8.93
2019-03-21T16:20:40.702Z,8.27
2019-03-21T16:23:10.142Z,7.93
2019-03-21T16:25:39.680Z,6.50
2019-03-21T16:28:09.107Z,8.40
2019-03-21T16:30:38.568Z,8.17
2019-03-21T16:33:08.056Z,7.73
2019-03-21T16:35:37.576Z,8.87
2019-03-21T16:38:07.029Z,8.07
2019-03-21T16:40:36.790Z,9.03
2019-03-21T16:43:06.413Z,9.97
2019-03-21T16:45:35.875Z,12.50
2019-03-21T16:48:09.222Z,9.60
2019-03-21T16:50:38.975Z,9.13
2019-03-21T16:53:08.458Z,7.43
2019-03-21T16:55:37.959Z,7.30
2019-03-21T16:58:07.364Z,8.63
2019-03-21T17:00:36.795Z,9.10
2019-03-21T17:03:06.279Z,8.13
2019-03-21T17:05:35.754Z,8.57
2019-03-21T17:08:11.171Z,8.37
2019-03-21T17:10:36.570Z,6.77
2019-03-21T17:13:06.513Z,9.77
2019-03-21T17:15:37.229Z,8.77
2019-03-21T17:18:06.722Z,9.07
2019-03-21T17:20:36.154Z,9.43
2019-03-21T17:23:05.905Z,7.63
2019-03-21T17:25:35.345Z,8.83
2019-03-21T17:28:06.347Z,8.03
2019-03-21T17:30:35.789Z,7.57
2019-03-21T17:33:05.345Z,8.37
2019-03-21T17:35:34.796Z,9.70
2019-03-21T17:38:04.253Z,11.27
2019-03-21T17:40:33.732Z,11.83
2019-03-21T17:43:03.005Z,14.63
2019-03-21T17:45:32.460Z,24.30
2019-03-21T17:48:01.928Z,17.70
2019-03-21T17:50:31.397Z,22.13
2019-03-21T17:53:02.095Z,22.97
2019-03-21T17:55:31.592Z,19.50
2019-03-21T17:58:01.041Z,21.40
2019-03-21T18:00:32.167Z,16.20
2019-03-21T18:03:01.614Z,12.17
2019-03-21T18:05:31.635Z,11.27
2019-03-21T18:08:01.116Z,4.70
2019-03-21T18:10:33.546Z,9.77
2019-03-21T18:13:03.911Z,10.70
2019-03-21T18:15:33.633Z,7.73
2019-03-21T18:18:03.405Z,7.83
2019-03-21T18:20:32.883Z,6.50
2019-03-21T18:23:02.311Z,7.77
2019-03-21T18:25:31.766Z,6.20
2019-03-21T18:28:01.215Z,6.50
2019-03-21T18:30:30.933Z,7.60
2019-03-21T18:33:00.394Z,7.17
2019-03-21T18:35:29.910Z,8.97
2019-03-21T18:37:59.570Z,8.10
2019-03-21T18:40:29.098Z,9.10
2019-03-21T18:42:58.589Z,9.60
2019-03-21T18:45:28.073Z,7.67
2019-03-21T18:47:57.522Z,9.10
2019-03-21T18:50:27.182Z,12.10
2019-03-21T18:52:57.412Z,11.67
2019-03-21T18:55:26.889Z,12.90
2019-03-21T18:57:56.373Z,26.97
2019-03-21T19:00:25.897Z,44.80
2019-03-21T19:02:57.057Z,38.10
2019-03-21T19:05:26.511Z,21.60
2019-03-21T19:07:55.971Z,25.90
2019-03-21T19:10:25.462Z,27.97
2019-03-21T19:12:54.913Z,46.10
2019-03-21T19:15:24.394Z,44.33
2019-03-21T19:17:53.829Z,23.00
2019-03-21T19:20:23.291Z,25.03
2019-03-21T19:22:52.735Z,23.50
2019-03-21T19:25:22.199Z,26.07
2019-03-21T19:27:51.671Z,28.03
2019-03-21T19:30:22.274Z,30.53
2019-03-21T19:32:51.730Z,25.33
2019-03-21T19:35:21.197Z,23.30
2019-03-21T19:37:50.632Z,22.80
2019-03-21T19:40:21.025Z,22.47
2019-03-21T19:42:50.474Z,21.60
2019-03-21T19:45:20.741Z,20.90
2019-03-21T19:47:50.401Z,25.63
2019-03-21T19:50:23.835Z,34.47
2019-03-21T19:52:53.281Z,49.10
2019-03-21T19:55:30.683Z,12.50
2019-03-21T19:57:53.961Z,13.43
2019-03-21T20:00:26.853Z,20.63
2019-03-21T20:02:56.327Z,21.30
2019-03-21T20:05:25.782Z,26.07
2019-03-21T20:07:55.497Z,35.33
2019-03-21T20:10:24.963Z,27.83
2019-03-21T20:12:54.491Z,15.27
2019-03-21T20:15:24.034Z,23.23
2019-03-21T20:17:53.482Z,26.07
2019-03-21T20:20:22.927Z,11.80
2019-03-21T20:22:52.382Z,30.10
2019-03-21T20:25:21.823Z,40.70
2019-03-21T20:27:51.299Z,11.27
2019-03-21T20:30:23.924Z,19.27
2019-03-21T20:32:53.392Z,27.73
2019-03-21T20:35:23.119Z,42.60
2019-03-21T20:37:52.903Z,28.33
2019-03-21T20:40:22.357Z,40.27
2019-03-21T20:42:51.826Z,83.10
2019-03-21T20:45:21.726Z,122.13
2019-03-21T20:47:51.184Z,110.73
2019-03-21T20:50:20.614Z,42.70
2019-03-21T20:52:50.128Z,83.43
2019-03-21T20:55:19.588Z,84.97
2019-03-21T20:57:49.054Z,89.47
2019-03-21T21:00:25.282Z,46.70
2019-03-21T21:02:54.896Z,42.53
2019-03-21T21:05:24.339Z,50.07
2019-03-21T21:07:53.799Z,54.90
2019-03-21T21:10:23.226Z,50.03
2019-03-21T21:12:52.714Z,29.17
2019-03-21T21:15:22.151Z,49.70
2019-03-21T21:17:51.590Z,48.80
2019-03-21T21:20:21.080Z,32.00
2019-03-21T21:22:50.538Z,43.97
2019-03-21T21:25:19.966Z,46.20
2019-03-21T21:27:50.328Z,47.20
2019-03-21T21:30:21.961Z,47.93
2019-03-21T21:32:51.415Z,32.33
2019-03-21T21:35:20.871Z,46.80
2019-03-21T21:37:50.344Z,46.63
2019-03-21T21:40:20.497Z,45.53
2019-03-21T21:42:49.952Z,45.37
2019-03-21T21:45:19.968Z,39.90
2019-03-21T21:47:49.524Z,47.17
2019-03-21T21:50:19.606Z,44.90
2019-03-21T21:52:49.085Z,44.27
2019-03-21T21:55:18.517Z,42.10
2019-03-21T21:57:47.983Z,38.77
2019-03-21T22:00:21.331Z,40.80
2019-03-21T22:02:51.075Z,36.37
2019-03-21T22:05:20.516Z,36.47
2019-03-21T22:07:50.000Z,33.10
2019-03-21T22:10:19.441Z,34.50
2019-03-21T22:12:48.915Z,38.00
2019-03-21T22:15:18.430Z,33.53
2019-03-21T22:17:47.875Z,34.77
2019-03-21T22:20:17.922Z,36.87
2019-03-21T22:22:47.343Z,35.63
2019-03-21T22:25:16.820Z,38.63
2019-03-21T22:27:46.270Z,41.77
2019-03-21T22:30:20.112Z,36.63
2019-03-21T22:32:49.632Z,32.27
2019-03-21T22:35:19.072Z,32.17
2019-03-21T22:37:48.531Z,30.40
2019-03-21T22:40:19.118Z,49.40
2019-03-21T22:42:48.589Z,39.50
2019-03-21T22:45:18.508Z,44.60
2019-03-21T22:47:50.331Z,45.90
2019-03-21T22:50:19.340Z,48.33
2019-03-21T22:52:48.815Z,62.83
2019-03-21T22:55:18.243Z,76.20
2019-03-21T22:57:47.885Z,70.17
2019-03-21T23:00:25.276Z,72.80
2019-03-21T23:02:54.764Z,74.50
2019-03-21T23:05:24.249Z,70.07
2019-03-21T23:07:53.703Z,71.37
2019-03-21T23:10:23.235Z,74.20
2019-03-21T23:12:52.690Z,79.13
2019-03-21T23:15:22.150Z,73.93
2019-03-21T23:17:51.642Z,71.90
2019-03-21T23:20:21.110Z,52.37
2019-03-21T23:22:50.709Z,65.23
2019-03-21T23:25:20.179Z,69.30
2019-03-21T23:27:49.668Z,79.73
2019-03-21T23:30:19.759Z,46.23
2019-03-21T23:32:49.278Z,77.93
2019-03-21T23:35:18.716Z,50.13
2019-03-21T23:37:48.135Z,70.97
2019-03-21T23:40:17.693Z,85.10
2019-03-21T23:42:47.146Z,91.90
2019-03-21T23:45:16.807Z,86.17
2019-03-21T23:47:46.253Z,77.30
2019-03-21T23:50:16.031Z,87.00
2019-03-21T23:52:45.572Z,60.67
2019-03-21T23:55:15.356Z,61.67
2019-03-21T23:57:44.797Z,33.43
